sensor_id;sensor_type;location;lat;lon;timestamp;temperature;humidity
40077;DHT22;25777;47.824;18.982;2023-08-06T00:00:26;19.20;99.90
40077;DHT22;25777;47.824;18.982;2023-08-06T00:02:53;19.20;99.90
40077;DHT22;25777;47.824;18.982;2023-08-06T00:05:19;19.10;99.90
40077;DHT22;25777;47.824;18.982;2023-08-06T00:07:47;19.20;99.90
40077;DHT22;25777;47.824;18.982;2023-08-06T00:10:13;19.20;99.90
40077;DHT22;25777;47.824;18.982;2023-08-06T00:12:39;19.20;99.90
40077;DHT22;25777;47.824;18.982;2023-08-06T00:15:05;19.20;99.90
40077;DHT22;25777;47.824;18.982;2023-08-06T00:17:31;19.30;99.90
40077;DHT22;25777;47.824;18.982;2023-08-06T00:19:57;19.20;99.90
40077;DHT22;25777;47.824;18.982;2023-08-06T00:22:23;19.20;99.90
40077;DHT22;25777;47.824;18.982;2023-08-06T00:24:49;19.30;99.90
40077;DHT22;25777;47.824;18.982;2023-08-06T00:27:15;19.30;99.90
40077;DHT22;25777;47.824;18.982;2023-08-06T00:29:41;19.30;99.90
40077;DHT22;25777;47.824;18.982;2023-08-06T00:32:07;19.30;99.90
40077;DHT22;25777;47.824;18.982;2023-08-06T00:34:33;19.20;99.90
40077;DHT22;25777;47.824;18.982;2023-08-06T00:37:01;19.20;99.90
40077;DHT22;25777;47.824;18.982;2023-08-06T00:39:27;19.20;99.90
40077;DHT22;25777;47.824;18.982;2023-08-06T00:41:53;19.20;99.90
40077;DHT22;25777;47.824;18.982;2023-08-06T00:44:20;19.10;99.90
40077;DHT22;25777;47.824;18.982;2023-08-06T00:46:46;19.10;99.90
40077;DHT22;25777;47.824;18.982;2023-08-06T00:49:12;19.10;99.90
40077;DHT22;25777;47.824;18.982;2023-08-06T00:51:38;19.00;99.90
40077;DHT22;25777;47.824;18.982;2023-08-06T00:54:05;19.10;99.90
40077;DHT22;25777;47.824;18.982;2023-08-06T00:56:34;19.10;99.90
40077;DHT22;25777;47.824;18.982;2023-08-06T00:59:01;19.10;99.90
40077;DHT22;25777;47.824;18.982;2023-08-06T01:01:28;19.10;99.90
40077;DHT22;25777;47.824;18.982;2023-08-06T01:03:54;19.10;99.90
40077;DHT22;25777;47.824;18.982;2023-08-06T01:06:30;19.00;99.90
40077;DHT22;25777;47.824;18.982;2023-08-06T01:09:04;19.10;99.90
40077;DHT22;25777;47.824;18.982;2023-08-06T01:14:37;19.10;99.90
40077;DHT22;25777;47.824;18.982;2023-08-06T01:17:08;19.00;99.90
40077;DHT22;25777;47.824;18.982;2023-08-06T01:19:39;19.00;99.90
40077;DHT22;25777;47.824;18.982;2023-08-06T01:22:05;19.00;99.90
40077;DHT22;25777;47.824;18.982;2023-08-06T01:24:33;19.00;99.90
40077;DHT22;25777;47.824;18.982;2023-08-06T01:30:20;18.90;99.90
40077;DHT22;25777;47.824;18.982;2023-08-06T01:32:59;18.90;99.90
40077;DHT22;25777;47.824;18.982;2023-08-06T01:35:35;18.80;99.90
40077;DHT22;25777;47.824;18.982;2023-08-06T01:38:09;18.80;99.90
40077;DHT22;25777;47.824;18.982;2023-08-06T01:40:36;18.80;99.90
40077;DHT22;25777;47.824;18.982;2023-08-06T01:43:16;18.80;99.90
40077;DHT22;25777;47.824;18.982;2023-08-06T01:45:42;18.70;99.90
40077;DHT22;25777;47.824;18.982;2023-08-06T01:48:08;18.70;99.90
40077;DHT22;25777;47.824;18.982;2023-08-06T01:50:34;18.60;99.90
40077;DHT22;25777;47.824;18.982;2023-08-06T01:53:01;18.60;99.90
40077;DHT22;25777;47.824;18.982;2023-08-06T01:55:28;18.60;99.90
40077;DHT22;25777;47.824;18.982;2023-08-06T01:58:04;18.60;99.90
40077;DHT22;25777;47.824;18.982;2023-08-06T02:00:31;18.70;99.90
40077;DHT22;25777;47.824;18.982;2023-08-06T02:03:06;18.60;99.90
40077;DHT22;25777;47.824;18.982;2023-08-06T02:05:44;18.60;99.90
40077;DHT22;25777;47.824;18.982;2023-08-06T02:08:12;18.70;99.90
40077;DHT22;25777;47.824;18.982;2023-08-06T02:10:45;18.70;99.90
40077;DHT22;25777;47.824;18.982;2023-08-06T02:13:11;18.70;99.90
40077;DHT22;25777;47.824;18.982;2023-08-06T02:15:45;18.70;99.90
40077;DHT22;25777;47.824;18.982;2023-08-06T02:18:17;18.60;99.90
40077;DHT22;25777;47.824;18.982;2023-08-06T02:20:44;18.60;99.90
40077;DHT22;25777;47.824;18.982;2023-08-06T02:23:20;18.50;99.90
40077;DHT22;25777;47.824;18.982;2023-08-06T02:25:46;18.50;99.90
40077;DHT22;25777;47.824;18.982;2023-08-06T02:28:13;18.50;99.90
40077;DHT22;25777;47.824;18.982;2023-08-06T02:30:50;18.50;99.90
40077;DHT22;25777;47.824;18.982;2023-08-06T02:33:15;18.50;99.90
40077;DHT22;25777;47.824;18.982;2023-08-06T02:35:47;18.50;99.90
40077;DHT22;25777;47.824;18.982;2023-08-06T02:38:21;18.50;99.90
40077;DHT22;25777;47.824;18.982;2023-08-06T02:40:47;18.50;99.90
40077;DHT22;25777;47.824;18.982;2023-08-06T02:43:16;18.50;99.90
40077;DHT22;25777;47.824;18.982;2023-08-06T02:45:43;18.50;99.90
40077;DHT22;25777;47.824;18.982;2023-08-06T02:48:10;18.50;99.90
40077;DHT22;25777;47.824;18.982;2023-08-06T02:50:49;18.50;99.90
40077;DHT22;25777;47.824;18.982;2023-08-06T02:53:15;18.50;99.90
40077;DHT22;25777;47.824;18.982;2023-08-06T02:55:49;18.50;99.90
40077;DHT22;25777;47.824;18.982;2023-08-06T02:58:16;18.50;99.90
40077;DHT22;25777;47.824;18.982;2023-08-06T03:00:44;18.50;99.90
40077;DHT22;25777;47.824;18.982;2023-08-06T03:03:13;18.40;99.90
40077;DHT22;25777;47.824;18.982;2023-08-06T03:05:40;18.50;99.90
40077;DHT22;25777;47.824;18.982;2023-08-06T03:08:05;18.50;99.90
40077;DHT22;25777;47.824;18.982;2023-08-06T03:10:31;18.40;99.90
40077;DHT22;25777;47.824;18.982;2023-08-06T03:12:58;18.40;99.90
40077;DHT22;25777;47.824;18.982;2023-08-06T03:15:26;18.40;99.90
40077;DHT22;25777;47.824;18.982;2023-08-06T03:17:52;18.40;99.90
40077;DHT22;25777;47.824;18.982;2023-08-06T03:20:21;18.40;99.90
40077;DHT22;25777;47.824;18.982;2023-08-06T03:22:47;18.40;99.90
40077;DHT22;25777;47.824;18.982;2023-08-06T03:25:14;18.40;99.90
40077;DHT22;25777;47.824;18.982;2023-08-06T03:27:42;18.50;99.90
40077;DHT22;25777;47.824;18.982;2023-08-06T03:30:10;18.50;99.90
40077;DHT22;25777;47.824;18.982;2023-08-06T03:32:36;18.50;99.90
40077;DHT22;25777;47.824;18.982;2023-08-06T03:35:03;18.40;99.90
40077;DHT22;25777;47.824;18.982;2023-08-06T03:37:29;18.50;99.90
40077;DHT22;25777;47.824;18.982;2023-08-06T03:39:57;18.50;99.90
40077;DHT22;25777;47.824;18.982;2023-08-06T03:42:24;18.40;99.90
40077;DHT22;25777;47.824;18.982;2023-08-06T03:44:51;18.40;99.90
40077;DHT22;25777;47.824;18.982;2023-08-06T03:47:19;18.40;99.90
40077;DHT22;25777;47.824;18.982;2023-08-06T04:01:28;18.30;99.90
40077;DHT22;25777;47.824;18.982;2023-08-06T04:03:54;18.30;99.90
40077;DHT22;25777;47.824;18.982;2023-08-06T04:06:20;18.30;99.90
40077;DHT22;25777;47.824;18.982;2023-08-06T04:08:46;18.30;99.90
40077;DHT22;25777;47.824;18.982;2023-08-06T04:11:13;18.30;99.90
40077;DHT22;25777;47.824;18.982;2023-08-06T04:13:43;18.30;99.90
40077;DHT22;25777;47.824;18.982;2023-08-06T04:16:09;18.40;99.90
40077;DHT22;25777;47.824;18.982;2023-08-06T04:18:35;18.40;99.90
40077;DHT22;25777;47.824;18.982;2023-08-06T04:21:02;18.40;99.90
40077;DHT22;25777;47.824;18.982;2023-08-06T04:23:35;18.30;99.90
40077;DHT22;25777;47.824;18.982;2023-08-06T04:26:02;18.20;99.90
40077;DHT22;25777;47.824;18.982;2023-08-06T04:28:28;18.20;99.90
40077;DHT22;25777;47.824;18.982;2023-08-06T04:30:54;18.10;99.90
40077;DHT22;25777;47.824;18.982;2023-08-06T04:33:23;18.10;99.90
40077;DHT22;25777;47.824;18.982;2023-08-06T04:35:54;18.20;99.90
40077;DHT22;25777;47.824;18.982;2023-08-06T04:38:22;18.00;99.90
40077;DHT22;25777;47.824;18.982;2023-08-06T04:40:48;17.90;99.90
40077;DHT22;25777;47.824;18.982;2023-08-06T04:43:14;17.90;99.90
40077;DHT22;25777;47.824;18.982;2023-08-06T04:45:51;17.90;99.90
40077;DHT22;25777;47.824;18.982;2023-08-06T04:48:18;17.90;99.90
40077;DHT22;25777;47.824;18.982;2023-08-06T04:50:45;17.90;99.90
40077;DHT22;25777;47.824;18.982;2023-08-06T04:53:13;17.90;99.90
40077;DHT22;25777;47.824;18.982;2023-08-06T04:55:40;17.90;99.90
40077;DHT22;25777;47.824;18.982;2023-08-06T04:58:08;18.00;99.90
40077;DHT22;25777;47.824;18.982;2023-08-06T05:00:35;18.00;99.90
40077;DHT22;25777;47.824;18.982;2023-08-06T05:03:02;18.00;99.90
40077;DHT22;25777;47.824;18.982;2023-08-06T05:05:28;18.00;99.90
40077;DHT22;25777;47.824;18.982;2023-08-06T05:07:55;17.90;99.90
40077;DHT22;25777;47.824;18.982;2023-08-06T05:10:23;17.80;99.90
40077;DHT22;25777;47.824;18.982;2023-08-06T05:12:50;17.90;99.90
40077;DHT22;25777;47.824;18.982;2023-08-06T05:15:16;17.90;99.90
40077;DHT22;25777;47.824;18.982;2023-08-06T05:17:42;17.70;99.90
40077;DHT22;25777;47.824;18.982;2023-08-06T05:20:09;17.50;99.90
40077;DHT22;25777;47.824;18.982;2023-08-06T05:22:35;17.50;99.90
40077;DHT22;25777;47.824;18.982;2023-08-06T05:25:00;17.70;99.90
40077;DHT22;25777;47.824;18.982;2023-08-06T05:27:26;17.70;99.90
40077;DHT22;25777;47.824;18.982;2023-08-06T05:29:55;17.50;99.90
40077;DHT22;25777;47.824;18.982;2023-08-06T05:32:23;17.50;99.90
40077;DHT22;25777;47.824;18.982;2023-08-06T05:34:50;17.40;99.90
40077;DHT22;25777;47.824;18.982;2023-08-06T05:37:23;17.40;99.90
40077;DHT22;25777;47.824;18.982;2023-08-06T05:39:49;17.40;99.90
40077;DHT22;25777;47.824;18.982;2023-08-06T05:42:22;17.50;99.90
40077;DHT22;25777;47.824;18.982;2023-08-06T05:44:59;17.60;99.90
40077;DHT22;25777;47.824;18.982;2023-08-06T05:47:26;17.70;99.90
40077;DHT22;25777;47.824;18.982;2023-08-06T05:49:52;17.60;99.90
40077;DHT22;25777;47.824;18.982;2023-08-06T05:52:18;17.70;99.90
40077;DHT22;25777;47.824;18.982;2023-08-06T05:54:46;17.80;99.90
40077;DHT22;25777;47.824;18.982;2023-08-06T05:57:13;17.70;99.90
40077;DHT22;25777;47.824;18.982;2023-08-06T05:59:40;17.60;99.90
40077;DHT22;25777;47.824;18.982;2023-08-06T06:02:06;17.50;99.90
40077;DHT22;25777;47.824;18.982;2023-08-06T06:04:36;17.50;99.90
40077;DHT22;25777;47.824;18.982;2023-08-06T06:07:02;17.30;99.90
40077;DHT22;25777;47.824;18.982;2023-08-06T06:09:29;17.30;99.90
40077;DHT22;25777;47.824;18.982;2023-08-06T06:11:56;17.40;99.90
40077;DHT22;25777;47.824;18.982;2023-08-06T06:14:26;17.20;99.90
40077;DHT22;25777;47.824;18.982;2023-08-06T06:16:54;17.20;99.90
40077;DHT22;25777;47.824;18.982;2023-08-06T06:19:23;17.40;99.90
40077;DHT22;25777;47.824;18.982;2023-08-06T06:21:51;17.30;99.90
40077;DHT22;25777;47.824;18.982;2023-08-06T06:24:17;17.30;99.90
40077;DHT22;25777;47.824;18.982;2023-08-06T06:26:43;17.20;99.90
40077;DHT22;25777;47.824;18.982;2023-08-06T06:29:09;17.20;99.90
40077;DHT22;25777;47.824;18.982;2023-08-06T06:31:45;17.10;99.90
40077;DHT22;25777;47.824;18.982;2023-08-06T06:34:11;17.20;99.90
40077;DHT22;25777;47.824;18.982;2023-08-06T06:36:37;17.10;99.90
40077;DHT22;25777;47.824;18.982;2023-08-06T06:39:04;17.00;99.90
40077;DHT22;25777;47.824;18.982;2023-08-06T06:41:30;17.10;99.90
40077;DHT22;25777;47.824;18.982;2023-08-06T06:43:58;17.10;99.90
40077;DHT22;25777;47.824;18.982;2023-08-06T06:46:24;17.00;99.90
40077;DHT22;25777;47.824;18.982;2023-08-06T06:48:50;17.00;99.90
40077;DHT22;25777;47.824;18.982;2023-08-06T06:51:16;17.00;99.90
40077;DHT22;25777;47.824;18.982;2023-08-06T06:53:41;16.90;99.90
40077;DHT22;25777;47.824;18.982;2023-08-06T06:56:07;16.80;99.90
40077;DHT22;25777;47.824;18.982;2023-08-06T06:58:47;16.90;99.90
40077;DHT22;25777;47.824;18.982;2023-08-06T07:01:15;16.80;99.90
40077;DHT22;25777;47.824;18.982;2023-08-06T07:03:41;16.70;99.90
40077;DHT22;25777;47.824;18.982;2023-08-06T07:06:07;16.90;99.90
40077;DHT22;25777;47.824;18.982;2023-08-06T07:08:35;17.00;99.90
40077;DHT22;25777;47.824;18.982;2023-08-06T07:11:04;16.90;99.90
40077;DHT22;25777;47.824;18.982;2023-08-06T07:13:30;16.80;99.90
40077;DHT22;25777;47.824;18.982;2023-08-06T07:15:56;17.10;99.90
40077;DHT22;25777;47.824;18.982;2023-08-06T07:18:23;17.00;99.90
40077;DHT22;25777;47.824;18.982;2023-08-06T07:20:50;17.20;99.90
40077;DHT22;25777;47.824;18.982;2023-08-06T07:23:23;17.20;99.90
40077;DHT22;25777;47.824;18.982;2023-08-06T07:28:24;16.90;99.90
40077;DHT22;25777;47.824;18.982;2023-08-06T07:30:52;16.80;99.90
40077;DHT22;25777;47.824;18.982;2023-08-06T07:33:24;16.70;99.90
40077;DHT22;25777;47.824;18.982;2023-08-06T07:35:50;16.90;99.90
40077;DHT22;25777;47.824;18.982;2023-08-06T07:38:21;16.90;99.90
40077;DHT22;25777;47.824;18.982;2023-08-06T07:40:53;16.80;99.90
40077;DHT22;25777;47.824;18.982;2023-08-06T07:43:29;16.90;99.90
40077;DHT22;25777;47.824;18.982;2023-08-06T07:46:01;16.80;99.90
40077;DHT22;25777;47.824;18.982;2023-08-06T07:48:28;16.70;99.90
40077;DHT22;25777;47.824;18.982;2023-08-06T07:50:55;16.80;99.90
40077;DHT22;25777;47.824;18.982;2023-08-06T07:53:23;16.80;99.90
40077;DHT22;25777;47.824;18.982;2023-08-06T07:55:51;16.90;99.90
40077;DHT22;25777;47.824;18.982;2023-08-06T07:58:18;17.00;99.90
40077;DHT22;25777;47.824;18.982;2023-08-06T08:00:44;17.10;99.90
40077;DHT22;25777;47.824;18.982;2023-08-06T08:03:15;17.10;99.90
40077;DHT22;25777;47.824;18.982;2023-08-06T08:05:44;17.00;99.90
40077;DHT22;25777;47.824;18.982;2023-08-06T08:08:10;17.10;99.90
40077;DHT22;25777;47.824;18.982;2023-08-06T08:10:36;16.90;99.90
40077;DHT22;25777;47.824;18.982;2023-08-06T08:13:03;17.00;99.90
40077;DHT22;25777;47.824;18.982;2023-08-06T08:15:30;17.00;99.90
40077;DHT22;25777;47.824;18.982;2023-08-06T08:17:57;16.90;99.90
40077;DHT22;25777;47.824;18.982;2023-08-06T08:20:23;16.90;99.90
40077;DHT22;25777;47.824;18.982;2023-08-06T08:22:49;17.00;99.90
40077;DHT22;25777;47.824;18.982;2023-08-06T08:25:22;17.10;99.90
40077;DHT22;25777;47.824;18.982;2023-08-06T08:27:48;17.00;99.90
40077;DHT22;25777;47.824;18.982;2023-08-06T08:30:14;17.00;99.90
40077;DHT22;25777;47.824;18.982;2023-08-06T08:32:40;17.10;99.90
40077;DHT22;25777;47.824;18.982;2023-08-06T08:35:06;17.20;99.90
40077;DHT22;25777;47.824;18.982;2023-08-06T08:37:32;17.20;99.90
40077;DHT22;25777;47.824;18.982;2023-08-06T08:39:58;17.10;99.90
40077;DHT22;25777;47.824;18.982;2023-08-06T08:42:28;17.00;99.90
40077;DHT22;25777;47.824;18.982;2023-08-06T08:44:57;17.00;99.90
40077;DHT22;25777;47.824;18.982;2023-08-06T08:47:54;16.70;99.90
40077;DHT22;25777;47.824;18.982;2023-08-06T08:50:21;16.70;99.90
40077;DHT22;25777;47.824;18.982;2023-08-06T08:52:47;16.90;99.90
40077;DHT22;25777;47.824;18.982;2023-08-06T08:55:16;17.00;99.90
40077;DHT22;25777;47.824;18.982;2023-08-06T08:57:43;17.20;99.90
40077;DHT22;25777;47.824;18.982;2023-08-06T09:00:09;17.20;99.90
40077;DHT22;25777;47.824;18.982;2023-08-06T09:02:36;17.20;99.90
40077;DHT22;25777;47.824;18.982;2023-08-06T09:05:05;17.10;99.90
40077;DHT22;25777;47.824;18.982;2023-08-06T09:07:36;16.90;99.90
40077;DHT22;25777;47.824;18.982;2023-08-06T09:10:07;16.90;99.90
40077;DHT22;25777;47.824;18.982;2023-08-06T09:12:38;16.80;99.90
40077;DHT22;25777;47.824;18.982;2023-08-06T09:15:04;16.80;99.90
40077;DHT22;25777;47.824;18.982;2023-08-06T09:17:31;16.70;99.90
40077;DHT22;25777;47.824;18.982;2023-08-06T09:19:57;16.80;99.90
40077;DHT22;25777;47.824;18.982;2023-08-06T09:22:23;16.70;99.90
40077;DHT22;25777;47.824;18.982;2023-08-06T09:24:51;16.70;99.90
40077;DHT22;25777;47.824;18.982;2023-08-06T09:27:18;16.70;99.90
40077;DHT22;25777;47.824;18.982;2023-08-06T09:29:45;16.70;99.90
40077;DHT22;25777;47.824;18.982;2023-08-06T09:32:14;16.90;99.90
40077;DHT22;25777;47.824;18.982;2023-08-06T09:34:42;16.70;99.90
40077;DHT22;25777;47.824;18.982;2023-08-06T09:37:09;16.70;99.90
40077;DHT22;25777;47.824;18.982;2023-08-06T09:39:39;16.70;99.90
40077;DHT22;25777;47.824;18.982;2023-08-06T09:42:08;16.80;99.90
40077;DHT22;25777;47.824;18.982;2023-08-06T09:44:35;16.80;99.90
40077;DHT22;25777;47.824;18.982;2023-08-06T09:47:03;16.90;99.90
40077;DHT22;25777;47.824;18.982;2023-08-06T09:51:58;17.10;99.90
40077;DHT22;25777;47.824;18.982;2023-08-06T09:54:28;17.20;99.90
40077;DHT22;25777;47.824;18.982;2023-08-06T09:56:56;17.40;99.90
40077;DHT22;25777;47.824;18.982;2023-08-06T09:59:25;17.50;99.90
40077;DHT22;25777;47.824;18.982;2023-08-06T10:01:54;17.50;99.90
40077;DHT22;25777;47.824;18.982;2023-08-06T10:04:22;17.20;99.90
40077;DHT22;25777;47.824;18.982;2023-08-06T10:06:51;17.10;99.90
40077;DHT22;25777;47.824;18.982;2023-08-06T10:09:24;17.00;99.90
40077;DHT22;25777;47.824;18.982;2023-08-06T10:11:53;17.00;99.90
40077;DHT22;25777;47.824;18.982;2023-08-06T10:14:40;17.00;99.90
40077;DHT22;25777;47.824;18.982;2023-08-06T10:17:10;17.00;99.90
40077;DHT22;25777;47.824;18.982;2023-08-06T10:19:42;17.00;99.90
40077;DHT22;25777;47.824;18.982;2023-08-06T10:22:14;17.00;99.90
40077;DHT22;25777;47.824;18.982;2023-08-06T10:25:18;16.90;99.90
40077;DHT22;25777;47.824;18.982;2023-08-06T10:30:47;16.70;99.90
40077;DHT22;25777;47.824;18.982;2023-08-06T10:33:14;16.60;99.90
40077;DHT22;25777;47.824;18.982;2023-08-06T10:35:42;16.60;99.90
40077;DHT22;25777;47.824;18.982;2023-08-06T10:38:24;16.60;99.90
40077;DHT22;25777;47.824;18.982;2023-08-06T10:43:36;16.80;99.90
40077;DHT22;25777;47.824;18.982;2023-08-06T10:46:27;16.90;99.90
40077;DHT22;25777;47.824;18.982;2023-08-06T10:48:57;17.00;99.90
40077;DHT22;25777;47.824;18.982;2023-08-06T10:51:26;17.10;99.90
40077;DHT22;25777;47.824;18.982;2023-08-06T10:53:55;17.10;99.90
40077;DHT22;25777;47.824;18.982;2023-08-06T10:56:25;17.10;99.90
40077;DHT22;25777;47.824;18.982;2023-08-06T10:58:54;17.20;99.90
40077;DHT22;25777;47.824;18.982;2023-08-06T11:01:24;17.20;99.90
40077;DHT22;25777;47.824;18.982;2023-08-06T11:04:00;17.30;99.90
40077;DHT22;25777;47.824;18.982;2023-08-06T11:06:28;17.30;99.90
40077;DHT22;25777;47.824;18.982;2023-08-06T11:08:54;17.50;99.90
40077;DHT22;25777;47.824;18.982;2023-08-06T11:11:21;17.50;99.90
40077;DHT22;25777;47.824;18.982;2023-08-06T11:13:50;17.50;99.90
40077;DHT22;25777;47.824;18.982;2023-08-06T11:16:23;17.60;99.90
40077;DHT22;25777;47.824;18.982;2023-08-06T11:18:58;17.70;99.90
40077;DHT22;25777;47.824;18.982;2023-08-06T11:21:30;17.90;99.90
40077;DHT22;25777;47.824;18.982;2023-08-06T11:23:58;18.00;99.90
40077;DHT22;25777;47.824;18.982;2023-08-06T11:26:29;17.90;99.90
40077;DHT22;25777;47.824;18.982;2023-08-06T11:28:57;17.90;99.90
40077;DHT22;25777;47.824;18.982;2023-08-06T11:31:26;18.10;99.90
40077;DHT22;25777;47.824;18.982;2023-08-06T11:34:14;18.30;99.90
40077;DHT22;25777;47.824;18.982;2023-08-06T11:36:41;18.80;99.90
40077;DHT22;25777;47.824;18.982;2023-08-06T11:39:13;19.00;99.90
40077;DHT22;25777;47.824;18.982;2023-08-06T11:41:40;19.00;99.90
40077;DHT22;25777;47.824;18.982;2023-08-06T11:44:10;18.90;99.90
40077;DHT22;25777;47.824;18.982;2023-08-06T11:46:54;18.80;99.90
40077;DHT22;25777;47.824;18.982;2023-08-06T11:49:47;18.70;99.90
40077;DHT22;25777;47.824;18.982;2023-08-06T11:52:25;18.70;99.90
40077;DHT22;25777;47.824;18.982;2023-08-06T11:55:17;18.40;99.90
40077;DHT22;25777;47.824;18.982;2023-08-06T11:57:46;18.10;99.90
40077;DHT22;25777;47.824;18.982;2023-08-06T12:00:13;18.30;99.90
40077;DHT22;25777;47.824;18.982;2023-08-06T12:02:46;18.50;99.90
40077;DHT22;25777;47.824;18.982;2023-08-06T12:05:28;18.60;99.90
40077;DHT22;25777;47.824;18.982;2023-08-06T12:08:02;18.80;99.90
40077;DHT22;25777;47.824;18.982;2023-08-06T12:10:32;19.00;99.90
40077;DHT22;25777;47.824;18.982;2023-08-06T12:13:08;19.20;99.90
40077;DHT22;25777;47.824;18.982;2023-08-06T12:15:34;19.30;99.90
40077;DHT22;25777;47.824;18.982;2023-08-06T12:18:01;19.50;99.90
40077;DHT22;25777;47.824;18.982;2023-08-06T12:20:27;19.50;99.90
40077;DHT22;25777;47.824;18.982;2023-08-06T12:22:55;19.50;99.90
40077;DHT22;25777;47.824;18.982;2023-08-06T12:25:20;19.60;99.90
40077;DHT22;25777;47.824;18.982;2023-08-06T12:27:46;19.30;99.90
40077;DHT22;25777;47.824;18.982;2023-08-06T12:30:26;19.10;99.90
40077;DHT22;25777;47.824;18.982;2023-08-06T12:32:52;18.90;99.90
40077;DHT22;25777;47.824;18.982;2023-08-06T12:35:17;18.70;99.90
40077;DHT22;25777;47.824;18.982;2023-08-06T12:37:45;18.80;99.90
40077;DHT22;25777;47.824;18.982;2023-08-06T12:40:19;18.50;99.90
40077;DHT22;25777;47.824;18.982;2023-08-06T12:42:45;18.80;99.90
40077;DHT22;25777;47.824;18.982;2023-08-06T12:45:11;18.90;99.90
40077;DHT22;25777;47.824;18.982;2023-08-06T12:47:37;18.80;99.90
40077;DHT22;25777;47.824;18.982;2023-08-06T12:50:08;18.70;99.90
40077;DHT22;25777;47.824;18.982;2023-08-06T12:52:43;18.50;99.90
40077;DHT22;25777;47.824;18.982;2023-08-06T12:55:08;18.50;99.90
40077;DHT22;25777;47.824;18.982;2023-08-06T12:57:34;18.80;99.90
40077;DHT22;25777;47.824;18.982;2023-08-06T13:00:00;18.80;99.90
40077;DHT22;25777;47.824;18.982;2023-08-06T13:02:26;18.50;99.90
40077;DHT22;25777;47.824;18.982;2023-08-06T13:04:56;18.20;99.90
40077;DHT22;25777;47.824;18.982;2023-08-06T13:07:24;18.20;99.90
40077;DHT22;25777;47.824;18.982;2023-08-06T13:09:51;18.30;99.90
40077;DHT22;25777;47.824;18.982;2023-08-06T13:12:17;18.00;99.90
40077;DHT22;25777;47.824;18.982;2023-08-06T13:14:45;17.70;99.90
40077;DHT22;25777;47.824;18.982;2023-08-06T13:17:40;17.60;99.90
40077;DHT22;25777;47.824;18.982;2023-08-06T13:20:13;17.60;99.90
40077;DHT22;25777;47.824;18.982;2023-08-06T13:22:45;17.50;99.90
40077;DHT22;25777;47.824;18.982;2023-08-06T13:25:12;17.50;99.90
40077;DHT22;25777;47.824;18.982;2023-08-06T13:27:40;17.60;99.90
40077;DHT22;25777;47.824;18.982;2023-08-06T13:30:07;17.70;99.90
40077;DHT22;25777;47.824;18.982;2023-08-06T13:32:35;17.80;99.90
40077;DHT22;25777;47.824;18.982;2023-08-06T13:35:06;17.90;99.90
40077;DHT22;25777;47.824;18.982;2023-08-06T13:37:33;17.70;99.90
40077;DHT22;25777;47.824;18.982;2023-08-06T13:40:02;17.60;99.90
40077;DHT22;25777;47.824;18.982;2023-08-06T13:42:28;17.50;99.90
40077;DHT22;25777;47.824;18.982;2023-08-06T13:45:02;17.50;99.90
40077;DHT22;25777;47.824;18.982;2023-08-06T13:47:29;17.50;99.90
40077;DHT22;25777;47.824;18.982;2023-08-06T13:49:58;17.50;99.90
40077;DHT22;25777;47.824;18.982;2023-08-06T13:52:26;17.70;99.90
40077;DHT22;25777;47.824;18.982;2023-08-06T13:54:59;17.70;99.90
40077;DHT22;25777;47.824;18.982;2023-08-06T13:57:25;17.80;99.90
40077;DHT22;25777;47.824;18.982;2023-08-06T13:59:51;17.70;99.90
40077;DHT22;25777;47.824;18.982;2023-08-06T14:02:19;17.70;99.90
40077;DHT22;25777;47.824;18.982;2023-08-06T14:04:45;17.60;99.90
40077;DHT22;25777;47.824;18.982;2023-08-06T14:07:11;17.60;99.90
40077;DHT22;25777;47.824;18.982;2023-08-06T14:09:38;17.60;99.90
40077;DHT22;25777;47.824;18.982;2023-08-06T14:12:05;17.50;99.90
40077;DHT22;25777;47.824;18.982;2023-08-06T14:14:35;17.70;99.90
40077;DHT22;25777;47.824;18.982;2023-08-06T14:17:02;17.80;99.90
40077;DHT22;25777;47.824;18.982;2023-08-06T14:19:53;17.80;99.90
40077;DHT22;25777;47.824;18.982;2023-08-06T14:22:20;18.00;99.90
40077;DHT22;25777;47.824;18.982;2023-08-06T14:24:46;17.90;99.90
40077;DHT22;25777;47.824;18.982;2023-08-06T14:27:12;17.90;99.90
40077;DHT22;25777;47.824;18.982;2023-08-06T14:29:40;17.70;99.90
40077;DHT22;25777;47.824;18.982;2023-08-06T14:32:07;17.70;99.90
40077;DHT22;25777;47.824;18.982;2023-08-06T14:34:33;17.70;99.90
40077;DHT22;25777;47.824;18.982;2023-08-06T14:37:00;17.80;99.90
40077;DHT22;25777;47.824;18.982;2023-08-06T14:39:27;17.80;99.90
40077;DHT22;25777;47.824;18.982;2023-08-06T14:41:53;17.50;99.90
40077;DHT22;25777;47.824;18.982;2023-08-06T14:44:19;17.60;99.90
40077;DHT22;25777;47.824;18.982;2023-08-06T14:46:45;17.60;99.90
40077;DHT22;25777;47.824;18.982;2023-08-06T14:49:11;17.50;99.90
40077;DHT22;25777;47.824;18.982;2023-08-06T14:51:39;17.50;99.90
40077;DHT22;25777;47.824;18.982;2023-08-06T14:54:05;17.30;99.90
40077;DHT22;25777;47.824;18.982;2023-08-06T14:56:32;17.20;99.90
40077;DHT22;25777;47.824;18.982;2023-08-06T14:58:57;17.20;99.90
40077;DHT22;25777;47.824;18.982;2023-08-06T15:01:23;17.20;99.90
40077;DHT22;25777;47.824;18.982;2023-08-06T15:03:49;17.10;99.90
40077;DHT22;25777;47.824;18.982;2023-08-06T15:06:15;17.20;99.90
40077;DHT22;25777;47.824;18.982;2023-08-06T15:08:42;17.20;99.90
40077;DHT22;25777;47.824;18.982;2023-08-06T15:11:13;17.30;99.90
40077;DHT22;25777;47.824;18.982;2023-08-06T15:13:40;17.40;99.90
40077;DHT22;25777;47.824;18.982;2023-08-06T15:16:06;17.30;99.90
40077;DHT22;25777;47.824;18.982;2023-08-06T15:18:33;17.30;99.90
40077;DHT22;25777;47.824;18.982;2023-08-06T15:21:00;17.20;99.90
40077;DHT22;25777;47.824;18.982;2023-08-06T15:23:27;17.20;99.90
40077;DHT22;25777;47.824;18.982;2023-08-06T15:25:53;17.20;99.90
40077;DHT22;25777;47.824;18.982;2023-08-06T15:28:20;17.30;99.90
40077;DHT22;25777;47.824;18.982;2023-08-06T15:30:50;17.30;99.90
40077;DHT22;25777;47.824;18.982;2023-08-06T15:33:18;17.20;99.90
40077;DHT22;25777;47.824;18.982;2023-08-06T15:35:44;17.20;99.90
40077;DHT22;25777;47.824;18.982;2023-08-06T15:38:10;17.30;99.90
40077;DHT22;25777;47.824;18.982;2023-08-06T15:40:36;17.20;99.90
40077;DHT22;25777;47.824;18.982;2023-08-06T15:43:02;17.20;99.90
40077;DHT22;25777;47.824;18.982;2023-08-06T15:45:30;17.20;99.90
40077;DHT22;25777;47.824;18.982;2023-08-06T15:47:56;17.30;99.90
40077;DHT22;25777;47.824;18.982;2023-08-06T15:50:22;17.30;99.90
40077;DHT22;25777;47.824;18.982;2023-08-06T15:52:51;17.30;99.90